Time;durP1;ratioP1;P1;durP2;ratioP2;P2;SDS_P1;SDS_P2;PMS_P1;PMS_P2;Temp;Humidity;BMP_temperature;BMP_pressure;BME280_temperature;BME280_humidity;BME280_pressure;Samples;Min_cycle;Max_cycle;Signal;HPM_P1;HPM_P2
2022/02/18 00:00:26;;;;;;;11.30;2.57;;;8.30;99.90;;;;;;5020401;28;20220;-61
2022/02/18 00:02:53;;;;;;;14.03;2.80;;;8.40;99.90;;;;;;5019625;28;20201;-60
2022/02/18 00:05:21;;;;;;;14.07;3.17;;;8.30;99.90;;;;;;5020155;28;20254;-59
2022/02/18 00:07:49;;;;;;;14.87;3.90;;;8.30;99.90;;;;;;5014081;28;20276;-57
2022/02/18 00:10:16;;;;;;;15.13;3.07;;;8.30;99.90;;;;;;5015577;28;20258;-60
2022/02/18 00:12:43;;;;;;;8.77;2.47;;;8.40;99.90;;;;;;5018689;28;20205;-60
2022/02/18 00:15:10;;;;;;;13.13;2.43;;;8.30;99.90;;;;;;5021160;28;20231;-58
2022/02/18 00:17:38;;;;;;;12.27;2.77;;;8.40;99.90;;;;;;5023941;28;20202;-58
2022/02/18 00:20:07;;;;;;;15.23;2.90;;;8.40;99.90;;;;;;5019890;28;20773;-61
2022/02/18 00:22:34;;;;;;;9.90;2.60;;;8.50;99.90;;;;;;5023287;28;20208;-60
2022/02/18 00:25:03;;;;;;;8.23;2.23;;;8.50;90.10;;;;;;5018818;28;20303;-59
2022/02/18 00:27:30;;;;;;;10.10;2.10;;;8.50;82.00;;;;;;5023090;28;20197;-59
2022/02/18 00:29:56;;;;;;;8.30;2.37;;;8.50;76.50;;;;;;5019948;28;20285;-58
2022/02/18 00:32:23;;;;;;;14.57;2.47;;;8.40;99.90;;;;;;5021614;28;20205;-56
2022/02/18 00:34:50;;;;;;;10.63;2.40;;;8.40;99.90;;;;;;5023893;28;20348;-57
2022/02/18 00:37:18;;;;;;;12.33;2.87;;;8.30;99.90;;;;;;5023327;28;20551;-61
2022/02/18 00:39:45;;;;;;;10.43;2.73;;;8.30;99.90;;;;;;5019262;28;20238;-58
2022/02/18 00:42:12;;;;;;;9.97;2.77;;;8.30;99.90;;;;;;5010362;28;20302;-61
2022/02/18 00:44:39;;;;;;;11.20;2.47;;;8.40;99.90;;;;;;5019390;28;20219;-57
2022/02/18 00:47:06;;;;;;;17.70;3.40;;;8.30;99.90;;;;;;5022770;28;20303;-60
2022/02/18 00:49:33;;;;;;;10.77;2.90;;;8.30;99.90;;;;;;5018797;28;20240;-61
2022/02/18 00:52:00;;;;;;;7.17;2.40;;;8.20;99.90;;;;;;5021428;28;20208;-59
2022/02/18 00:54:27;;;;;;;13.50;2.43;;;8.20;99.90;;;;;;5023821;28;20232;-61
2022/02/18 00:56:54;;;;;;;13.03;3.00;;;8.20;99.90;;;;;;5018485;28;20202;-59
2022/02/18 00:59:21;;;;;;;12.40;2.70;;;8.20;99.90;;;;;;5017006;28;20214;-56
2022/02/18 01:01:48;;;;;;;13.37;2.23;;;8.30;99.90;;;;;;5018537;28;20250;-59
2022/02/18 01:04:15;;;;;;;8.83;2.20;;;8.30;99.90;;;;;;5021193;28;20351;-60
2022/02/18 01:06:42;;;;;;;11.60;2.63;;;8.20;99.90;;;;;;5022204;28;20217;-60
2022/02/18 01:09:09;;;;;;;10.33;3.10;;;8.20;99.90;;;;;;5023316;28;20330;-59
2022/02/18 01:11:37;;;;;;;10.73;2.73;;;8.20;99.90;;;;;;5018108;28;20203;-58
2022/02/18 01:14:04;;;;;;;11.40;2.70;;;8.20;99.90;;;;;;5022895;28;20217;-60
2022/02/18 01:16:31;;;;;;;10.40;2.90;;;8.20;99.90;;;;;;5021299;28;20202;-60
2022/02/18 01:18:58;;;;;;;12.63;3.00;;;8.20;99.90;;;;;;5021261;28;20312;-62
2022/02/18 01:21:26;;;;;;;17.70;3.33;;;8.20;99.90;;;;;;5018610;28;20551;-60
2022/02/18 01:23:52;;;;;;;13.27;5.03;;;8.20;99.90;;;;;;5021421;28;20657;-58
2022/02/18 01:26:19;;;;;;;14.20;2.70;;;8.20;99.90;;;;;;5027160;28;20233;-60
2022/02/18 01:28:46;;;;;;;10.43;2.80;;;8.20;99.90;;;;;;5029356;28;20312;-60
2022/02/18 01:31:13;;;;;;;9.70;2.90;;;8.20;99.90;;;;;;5028518;28;20215;-60
2022/02/18 01:33:40;;;;;;;9.13;2.87;;;8.20;99.90;;;;;;5030869;28;20218;-59
2022/02/18 01:36:08;;;;;;;15.13;3.10;;;8.10;99.90;;;;;;5029617;28;20240;-59
2022/02/18 01:38:34;;;;;;;10.90;3.73;;;8.20;99.90;;;;;;5024506;28;20238;-60
2022/02/18 01:41:01;;;;;;;8.80;2.50;;;8.10;99.90;;;;;;5030625;28;20247;-59
2022/02/18 01:43:28;;;;;;;14.07;3.03;;;8.10;99.90;;;;;;5026697;28;20491;-59
2022/02/18 01:45:55;;;;;;;14.50;2.90;;;8.10;99.90;;;;;;5027328;28;20864;-60
2022/02/18 01:48:22;;;;;;;13.47;3.30;;;8.10;99.90;;;;;;5030003;28;20232;-61
2022/02/18 01:50:49;;;;;;;13.80;4.03;;;8.10;99.90;;;;;;5014542;28;20234;-56
2022/02/18 01:53:16;;;;;;;10.90;2.80;;;8.10;99.90;;;;;;5040793;28;20582;-58
2022/02/18 01:55:43;;;;;;;9.30;2.40;;;8.10;99.90;;;;;;5027146;28;20205;-59
2022/02/18 01:58:10;;;;;;;16.17;2.93;;;8.10;99.90;;;;;;5028854;28;20231;-59
2022/02/18 02:00:37;;;;;;;11.03;2.73;;;8.10;99.90;;;;;;5020498;28;20208;-59
2022/02/18 02:03:04;;;;;;;16.20;3.03;;;8.20;99.90;;;;;;5023278;28;20710;-56
2022/02/18 02:05:31;;;;;;;13.70;2.50;;;8.20;99.90;;;;;;5025725;28;20212;-56
2022/02/18 02:07:59;;;;;;;13.73;3.00;;;8.30;99.90;;;;;;5026514;28;20233;-58
2022/02/18 02:10:26;;;;;;;8.53;2.27;;;8.20;99.90;;;;;;5022295;28;20639;-58
2022/02/18 02:12:54;;;;;;;16.70;2.77;;;8.30;99.90;;;;;;5029714;28;20985;-59
2022/02/18 02:15:24;;;;;;;11.90;2.23;;;8.20;99.90;;;;;;5028484;28;20727;-58
2022/02/18 02:17:52;;;;;;;12.80;3.40;;;8.30;99.90;;;;;;5026339;28;20643;-56
2022/02/18 02:20:20;;;;;;;12.67;2.53;;;8.20;99.90;;;;;;5023521;28;22007;-59
2022/02/18 02:22:48;;;;;;;20.80;3.80;;;8.10;99.90;;;;;;5024690;28;20447;-59
2022/02/18 02:25:15;;;;;;;8.60;2.70;;;8.10;99.90;;;;;;5039597;28;20591;-59
2022/02/18 02:27:43;;;;;;;10.60;2.97;;;8.10;99.90;;;;;;5024190;28;20201;-60
2022/02/18 02:30:11;;;;;;;10.53;3.13;;;8.10;99.90;;;;;;5022483;28;20817;-59
2022/02/18 02:32:39;;;;;;;18.37;3.70;;;8.00;99.90;;;;;;5020488;28;20565;-60
2022/02/18 02:35:07;;;;;;;14.27;3.87;;;8.10;99.90;;;;;;5024619;28;20229;-59
2022/02/18 02:37:34;;;;;;;14.60;3.00;;;8.10;99.90;;;;;;5025458;28;20271;-60
2022/02/18 02:40:00;;;;;;;11.23;3.27;;;8.10;99.90;;;;;;5024773;28;20561;-60
2022/02/18 02:42:27;;;;;;;10.07;2.77;;;8.10;99.90;;;;;;5023986;28;20679;-59
2022/02/18 02:44:54;;;;;;;13.07;3.00;;;8.10;99.90;;;;;;5023233;28;20213;-56
2022/02/18 02:47:21;;;;;;;17.83;3.53;;;8.10;99.90;;;;;;5024689;28;20297;-59
2022/02/18 02:49:48;;;;;;;22.87;3.57;;;8.10;99.90;;;;;;5023146;28;20726;-56
2022/02/18 02:52:15;;;;;;;15.47;2.90;;;8.10;99.90;;;;;;5023681;28;20748;-59
2022/02/18 02:54:42;;;;;;;16.13;4.23;;;8.10;99.90;;;;;;5025590;28;20203;-59
2022/02/18 02:57:09;;;;;;;17.07;3.37;;;8.20;99.90;;;;;;5025461;28;20461;-60
2022/02/18 02:59:36;;;;;;;21.40;3.20;;;8.10;99.90;;;;;;5022699;28;20324;-59
2022/02/18 03:02:03;;;;;;;18.40;3.10;;;8.20;99.90;;;;;;5021541;28;20265;-59
2022/02/18 03:04:30;;;;;;;15.90;4.33;;;8.20;99.90;;;;;;5026078;28;20208;-59
2022/02/18 03:06:56;;;;;;;20.57;4.40;;;8.20;99.90;;;;;;5025751;28;20741;-59
2022/02/18 03:09:43;;;;;;;20.77;3.50;;;8.20;99.90;;;;;;5021766;28;21534;-59
2022/02/18 03:12:10;;;;;;;21.37;4.00;;;8.20;99.90;;;;;;5025921;28;20228;-58
2022/02/18 03:14:37;;;;;;;16.00;3.27;;;8.20;99.90;;;;;;5019945;28;20203;-59
2022/02/18 03:17:04;;;;;;;17.83;3.10;;;8.20;99.90;;;;;;5020458;28;20233;-60
2022/02/18 03:19:31;;;;;;;24.53;4.40;;;8.20;99.90;;;;;;5021327;28;20231;-58
2022/02/18 03:21:58;;;;;;;19.70;3.77;;;8.20;99.90;;;;;;5021400;28;20290;-59
2022/02/18 03:24:24;;;;;;;17.63;3.60;;;8.20;99.90;;;;;;5022603;28;20730;-57
2022/02/18 03:26:51;;;;;;;21.60;4.07;;;8.20;99.90;;;;;;5025717;28;20612;-57
2022/02/18 03:29:18;;;;;;;14.73;3.17;;;8.20;99.90;;;;;;5020209;28;20328;-58
2022/02/18 03:31:45;;;;;;;18.23;4.23;;;8.20;99.90;;;;;;5021250;28;20194;-60
2022/02/18 03:34:13;;;;;;;20.37;3.33;;;8.20;99.90;;;;;;5023245;28;20229;-58
2022/02/18 03:36:40;;;;;;;19.90;3.60;;;8.20;99.90;;;;;;5025012;28;20197;-61
2022/02/18 03:39:09;;;;;;;18.33;3.20;;;8.30;99.90;;;;;;5022783;28;20222;-58
2022/02/18 03:41:36;;;;;;;17.03;3.30;;;8.20;99.90;;;;;;5022988;28;20665;-59
2022/02/18 03:44:06;;;;;;;18.17;4.17;;;8.30;99.90;;;;;;5016452;28;20342;-58
2022/02/18 03:46:34;;;;;;;25.10;3.30;;;8.30;99.90;;;;;;5024587;28;20367;-57
2022/02/18 03:49:01;;;;;;;18.03;3.83;;;8.30;99.90;;;;;;5020485;28;20226;-57
2022/02/18 03:51:27;;;;;;;19.20;3.07;;;8.30;99.90;;;;;;5021373;28;20655;-61
2022/02/18 03:53:54;;;;;;;22.37;4.47;;;8.20;99.90;;;;;;5027076;28;20521;-58
2022/02/18 03:56:21;;;;;;;19.23;4.73;;;8.20;99.90;;;;;;5024941;28;20284;-60
2022/02/18 03:58:48;;;;;;;17.13;3.47;;;8.20;99.90;;;;;;5022964;28;20285;-55
2022/02/18 04:01:15;;;;;;;21.90;4.17;;;8.20;99.90;;;;;;5020198;28;20282;-58
2022/02/18 04:03:43;;;;;;;22.53;3.57;;;8.20;99.90;;;;;;5026256;28;20221;-61
2022/02/18 04:06:11;;;;;;;21.97;3.90;;;8.20;99.90;;;;;;5030835;28;20201;-60
2022/02/18 04:08:38;;;;;;;15.07;3.47;;;8.10;99.90;;;;;;5029995;28;20286;-60
2022/02/18 04:11:04;;;;;;;24.63;5.00;;;8.10;99.90;;;;;;5026115;28;20787;-60
2022/02/18 04:13:31;;;;;;;17.30;2.97;;;8.10;99.90;;;;;;5028440;28;20294;-59
2022/02/18 04:15:58;;;;;;;20.03;3.57;;;8.10;99.90;;;;;;5024990;28;20207;-59
2022/02/18 04:18:25;;;;;;;18.73;3.90;;;8.10;99.90;;;;;;5027983;28;20657;-59
2022/02/18 04:20:52;;;;;;;19.43;3.83;;;8.10;99.90;;;;;;5024294;28;20292;-60
2022/02/18 04:23:29;;;;;;;21.80;3.40;;;8.00;99.90;;;;;;5029887;28;20196;-58
2022/02/18 04:25:55;;;;;;;19.43;3.33;;;8.10;99.90;;;;;;5028739;28;20298;-60
2022/02/18 04:28:22;;;;;;;18.77;3.67;;;8.20;99.90;;;;;;5029167;28;20295;-60
2022/02/18 04:30:50;;;;;;;15.37;3.70;;;8.10;99.90;;;;;;5028139;28;20667;-60
2022/02/18 04:33:16;;;;;;;15.10;4.30;;;8.10;99.90;;;;;;5025418;28;20739;-58
2022/02/18 04:35:44;;;;;;;19.40;3.60;;;8.10;99.90;;;;;;5027567;28;20580;-60
2022/02/18 04:38:11;;;;;;;14.83;3.20;;;8.20;99.90;;;;;;5026336;28;20196;-60
2022/02/18 04:40:38;;;;;;;24.87;3.83;;;8.10;99.90;;;;;;5023425;28;20232;-58
2022/02/18 04:43:05;;;;;;;22.43;3.67;;;8.10;99.90;;;;;;5031714;28;20666;-59
2022/02/18 04:45:32;;;;;;;20.67;3.37;;;8.20;99.90;;;;;;5030154;28;20319;-60
2022/02/18 04:47:59;;;;;;;18.07;3.67;;;8.20;99.90;;;;;;5033533;28;20633;-60
2022/02/18 04:50:25;;;;;;;23.67;4.63;;;8.20;99.90;;;;;;5029308;28;20818;-60
2022/02/18 04:52:52;;;;;;;14.37;3.17;;;8.20;99.90;;;;;;5032606;28;20816;-60
2022/02/18 04:55:19;;;;;;;19.30;3.27;;;8.20;99.90;;;;;;5028598;28;20277;-60
2022/02/18 04:57:48;;;;;;;18.70;3.37;;;8.20;99.90;;;;;;5030846;28;20315;-59
2022/02/18 05:00:16;;;;;;;15.20;3.33;;;8.20;99.90;;;;;;5011018;28;20209;-60
2022/02/18 05:02:44;;;;;;;23.20;4.70;;;8.20;99.90;;;;;;5029789;28;20296;-60
2022/02/18 05:05:11;;;;;;;17.10;3.90;;;8.30;99.90;;;;;;5024331;28;20207;-60
2022/02/18 05:07:38;;;;;;;15.17;3.10;;;8.30;99.90;;;;;;5013842;28;20211;-60
2022/02/18 05:10:06;;;;;;;19.17;4.10;;;8.30;99.90;;;;;;5022686;28;20233;-59
2022/02/18 05:12:33;;;;;;;19.20;3.50;;;8.30;99.90;;;;;;5025498;28;20208;-59
2022/02/18 05:15:00;;;;;;;18.50;3.57;;;8.40;99.90;;;;;;5024912;28;20203;-58
2022/02/18 05:17:27;;;;;;;16.10;3.10;;;8.40;99.90;;;;;;5019929;28;20723;-57
2022/02/18 05:19:54;;;;;;;19.13;3.60;;;8.50;99.90;;;;;;5023519;28;20283;-59
2022/02/18 05:22:21;;;;;;;13.50;2.97;;;8.50;34.50;;;;;;5030088;28;20238;-60
2022/02/18 05:24:48;;;;;;;20.07;3.40;;;8.50;1.00;;;;;;5025965;28;20242;-59
2022/02/18 05:27:15;;;;;;;14.97;3.00;;;8.40;1.00;;;;;;5031808;28;20674;-60
2022/02/18 05:29:42;;;;;;;14.57;2.90;;;8.50;1.00;;;;;;5021068;28;21087;-60
2022/02/18 05:32:09;;;;;;;14.70;2.90;;;8.40;3.90;;;;;;5019191;28;20671;-59
2022/02/18 05:34:36;;;;;;;19.87;3.27;;;8.40;20.20;;;;;;5025265;28;20322;-61
2022/02/18 05:37:03;;;;;;;13.93;3.27;;;8.40;11.90;;;;;;5029068;28;20748;-59
2022/02/18 05:39:30;;;;;;;14.90;2.93;;;8.40;7.70;;;;;;5026815;28;20235;-60
2022/02/18 05:41:59;;;;;;;16.00;3.23;;;8.40;1.00;;;;;;5030145;28;20287;-58
2022/02/18 05:44:31;;;;;;;13.93;2.70;;;8.50;22.10;;;;;;5024976;28;20673;-58
2022/02/18 05:47:02;;;;;;;22.87;3.17;;;8.50;99.90;;;;;;5026477;28;20320;-58
2022/02/18 05:49:30;;;;;;;13.20;3.80;;;8.30;99.90;;;;;;5024015;28;20209;-60
2022/02/18 05:51:58;;;;;;;11.87;2.97;;;8.30;99.90;;;;;;5027514;28;20644;-60
2022/02/18 05:54:25;;;;;;;15.57;3.00;;;8.20;99.90;;;;;;5029234;28;20208;-59
2022/02/18 05:56:52;;;;;;;18.53;3.40;;;8.30;99.90;;;;;;5027626;28;20215;-59
2022/02/18 05:59:20;;;;;;;12.17;3.00;;;8.30;99.90;;;;;;5025786;28;20683;-57
2022/02/18 06:01:47;;;;;;;14.03;2.57;;;8.30;99.90;;;;;;5027778;28;20681;-60
2022/02/18 06:04:15;;;;;;;14.37;2.60;;;8.30;99.90;;;;;;5024652;28;20212;-59
2022/02/18 06:06:43;;;;;;;17.87;2.07;;;8.20;99.90;;;;;;5029878;28;20259;-59
2022/02/18 06:09:10;;;;;;;9.10;2.83;;;8.10;99.90;;;;;;5022164;28;20304;-59
2022/02/18 06:11:38;;;;;;;17.80;2.60;;;8.00;99.90;;;;;;5024641;28;20747;-60
2022/02/18 06:14:05;;;;;;;15.70;2.77;;;8.00;99.90;;;;;;5027349;28;20247;-58
2022/02/18 06:16:32;;;;;;;16.27;3.03;;;8.10;99.90;;;;;;5023421;28;20296;-60
2022/02/18 06:18:59;;;;;;;17.30;2.60;;;7.90;99.90;;;;;;5025701;28;20336;-60
2022/02/18 06:21:26;;;;;;;10.87;3.13;;;7.90;99.90;;;;;;5018041;28;20243;-58
2022/02/18 06:23:53;;;;;;;19.27;3.33;;;7.70;99.90;;;;;;5025711;28;20706;-59
2022/02/18 06:26:20;;;;;;;12.03;3.17;;;7.80;99.90;;;;;;5026457;28;20889;-64
2022/02/18 06:28:47;;;;;;;15.33;3.13;;;7.70;99.90;;;;;;5024041;28;20240;-60
2022/02/18 06:31:16;;;;;;;11.53;3.13;;;7.80;99.90;;;;;;5023982;28;20224;-57
2022/02/18 06:33:45;;;;;;;15.37;3.17;;;7.80;99.90;;;;;;5009337;28;21247;-59
2022/02/18 06:36:12;;;;;;;17.63;3.47;;;7.70;99.90;;;;;;5030691;28;20364;-60
2022/02/18 06:38:42;;;;;;;14.70;2.67;;;7.80;99.90;;;;;;5028118;28;20614;-59
2022/02/18 06:41:10;;;;;;;12.50;2.93;;;7.70;99.90;;;;;;5024447;28;20289;-60
2022/02/18 06:43:37;;;;;;;13.10;2.70;;;7.70;99.90;;;;;;5030197;28;20670;-60
2022/02/18 06:46:04;;;;;;;15.73;3.30;;;7.70;99.90;;;;;;5024191;28;21835;-59
2022/02/18 06:48:31;;;;;;;19.73;3.17;;;7.70;99.90;;;;;;5013445;28;20325;-59
2022/02/18 06:50:58;;;;;;;12.37;3.17;;;7.70;99.90;;;;;;5018490;28;20233;-59
2022/02/18 06:53:25;;;;;;;12.40;2.93;;;7.70;99.90;;;;;;5019016;28;20329;-60
2022/02/18 06:55:52;;;;;;;15.80;2.90;;;7.70;99.90;;;;;;5022819;28;20678;-59
2022/02/18 06:58:19;;;;;;;11.97;3.23;;;7.80;99.90;;;;;;5017314;28;20202;-58
2022/02/18 07:00:48;;;;;;;12.23;3.00;;;7.80;99.90;;;;;;5012164;28;20651;-59
2022/02/18 07:03:15;;;;;;;15.87;3.13;;;7.80;99.90;;;;;;5016735;28;20208;-58
2022/02/18 07:05:41;;;;;;;24.73;3.10;;;7.70;99.90;;;;;;5021155;28;20290;-56
2022/02/18 07:08:08;;;;;;;16.77;3.30;;;7.80;99.90;;;;;;5010671;28;20681;-59
2022/02/18 07:10:36;;;;;;;22.63;3.60;;;7.80;99.90;;;;;;4995345;28;20631;-59
2022/02/18 07:13:03;;;;;;;15.57;2.90;;;7.80;99.90;;;;;;5014191;28;20299;-58
2022/02/18 07:15:30;;;;;;;17.00;3.10;;;7.80;99.90;;;;;;5000484;28;20213;-59
2022/02/18 07:17:59;;;;;;;16.57;3.20;;;7.80;99.90;;;;;;5024700;28;20200;-59
2022/02/18 07:20:26;;;;;;;13.97;3.23;;;7.80;99.90;;;;;;5020161;28;20314;-59
2022/02/18 07:22:53;;;;;;;21.40;3.43;;;7.80;99.90;;;;;;5021401;28;20786;-60
2022/02/18 07:25:22;;;;;;;18.83;3.03;;;7.80;99.90;;;;;;5017973;28;20636;-60
2022/02/18 07:27:49;;;;;;;10.30;2.77;;;7.90;99.90;;;;;;5029206;28;20215;-61
2022/02/18 07:30:16;;;;;;;16.07;3.10;;;7.90;99.90;;;;;;5021712;28;20636;-60
2022/02/18 07:32:43;;;;;;;10.53;2.83;;;8.00;99.90;;;;;;5033990;28;20314;-59
2022/02/18 07:35:10;;;;;;;14.67;3.10;;;8.00;99.90;;;;;;5030927;28;20328;-59
2022/02/18 07:37:38;;;;;;;7.80;2.23;;;8.10;99.90;;;;;;5033072;28;20210;-59
2022/02/18 07:40:06;;;;;;;13.53;3.50;;;8.20;99.90;;;;;;5032149;28;20772;-59
2022/02/18 07:42:32;;;;;;;16.27;3.73;;;8.20;99.90;;;;;;5032451;28;20200;-59
2022/02/18 07:44:59;;;;;;;14.40;3.20;;;8.20;99.90;;;;;;5031757;28;20251;-58
2022/02/18 07:47:26;;;;;;;7.07;2.00;;;8.30;99.90;;;;;;5032775;28;20223;-59
2022/02/18 07:49:57;;;;;;;10.10;2.40;;;8.30;99.90;;;;;;5026124;28;20472;-57
2022/02/18 07:52:24;;;;;;;8.17;3.33;;;8.40;99.90;;;;;;5019748;28;20200;-59
2022/02/18 07:54:51;;;;;;;8.63;2.60;;;8.40;99.90;;;;;;5017764;28;20202;-59
2022/02/18 07:57:18;;;;;;;7.73;2.27;;;8.40;99.90;;;;;;5014560;28;20291;-57
2022/02/18 07:59:47;;;;;;;17.47;2.50;;;8.50;99.90;;;;;;5018286;28;20215;-58
2022/02/18 08:02:14;;;;;;;7.37;2.67;;;8.50;99.90;;;;;;5024255;28;20208;-61
2022/02/18 08:04:41;;;;;;;10.33;2.97;;;8.60;99.90;;;;;;5029653;28;20528;-59
2022/02/18 08:07:10;;;;;;;11.87;3.20;;;8.60;99.90;;;;;;5026675;28;20257;-58
2022/02/18 08:09:37;;;;;;;10.13;3.03;;;8.60;99.90;;;;;;5018423;28;20774;-60
2022/02/18 08:12:05;;;;;;;5.77;2.60;;;8.70;99.90;;;;;;5021205;28;20548;-59
2022/02/18 08:14:32;;;;;;;8.50;2.57;;;8.70;99.90;;;;;;5024922;28;20284;-59
2022/02/18 08:16:59;;;;;;;11.07;3.60;;;8.70;99.90;;;;;;5018353;28;20663;-60
2022/02/18 08:19:26;;;;;;;7.43;2.43;;;8.80;99.90;;;;;;5024633;28;20695;-59
2022/02/18 08:21:53;;;;;;;12.83;3.63;;;8.80;99.90;;;;;;5024137;28;20635;-59
2022/02/18 08:24:20;;;;;;;6.47;3.17;;;8.80;99.90;;;;;;5029900;28;20641;-60
2022/02/18 08:26:49;;;;;;;11.07;4.50;;;8.80;99.90;;;;;;5027541;28;20299;-60
2022/02/18 08:29:17;;;;;;;8.67;2.57;;;8.90;99.90;;;;;;5039764;28;20203;-59
2022/02/18 08:31:44;;;;;;;11.50;3.17;;;8.90;99.90;;;;;;5023601;28;20306;-60
2022/02/18 08:34:11;;;;;;;7.47;3.20;;;9.00;99.90;;;;;;5018575;28;20209;-60
2022/02/18 08:36:37;;;;;;;9.07;3.27;;;9.00;99.90;;;;;;5020050;28;20235;-58
2022/02/18 08:39:06;;;;;;;9.37;3.37;;;9.00;99.90;;;;;;5022529;28;20741;-58
2022/02/18 08:41:34;;;;;;;6.43;2.53;;;9.00;99.90;;;;;;5021054;28;20292;-59
2022/02/18 08:44:02;;;;;;;9.43;2.80;;;9.10;99.90;;;;;;5018336;28;20202;-59
2022/02/18 08:46:31;;;;;;;9.63;3.13;;;9.10;99.90;;;;;;5020443;28;20582;-66
2022/02/18 08:48:58;;;;;;;10.60;2.00;;;9.20;99.90;;;;;;5018127;28;20219;-60
2022/02/18 08:51:26;;;;;;;7.50;2.63;;;9.30;99.90;;;;;;5016124;28;20719;-61
2022/02/18 08:53:53;;;;;;;10.27;2.67;;;9.30;99.90;;;;;;5017050;28;20294;-60
2022/02/18 08:56:21;;;;;;;6.93;2.57;;;9.30;99.90;;;;;;5017174;28;21133;-62
2022/02/18 08:58:48;;;;;;;9.90;2.60;;;9.40;99.90;;;;;;5019271;28;20299;-62
2022/02/18 09:01:15;;;;;;;6.77;2.00;;;9.40;99.90;;;;;;5023117;28;20205;-61
2022/02/18 09:03:42;;;;;;;7.37;3.03;;;9.50;99.90;;;;;;5018498;28;20275;-62
2022/02/18 09:06:09;;;;;;;3.97;2.10;;;9.50;99.90;;;;;;5021268;28;20693;-68
2022/02/18 09:08:36;;;;;;;3.73;2.00;;;9.60;99.90;;;;;;5022779;28;20207;-70
2022/02/18 09:11:04;;;;;;;8.97;2.70;;;9.70;99.90;;;;;;5021666;28;20317;-70
2022/02/18 09:13:31;;;;;;;7.10;2.43;;;9.70;99.90;;;;;;5019284;28;20221;-62
2022/02/18 09:15:57;;;;;;;5.33;2.10;;;9.80;99.90;;;;;;5016531;28;20207;-62
2022/02/18 09:18:24;;;;;;;5.40;1.73;;;9.80;99.90;;;;;;5017571;28;20295;-62
2022/02/18 09:20:51;;;;;;;5.13;1.90;;;9.80;99.90;;;;;;5023578;28;21154;-62
2022/02/18 09:23:18;;;;;;;5.70;2.23;;;9.90;99.90;;;;;;5024123;28;20223;-61
2022/02/18 09:25:45;;;;;;;2.80;1.70;;;10.00;99.90;;;;;;5022684;28;20202;-62
2022/02/18 09:28:13;;;;;;;1.90;1.50;;;10.00;99.90;;;;;;5018642;28;20230;-61
2022/02/18 09:30:43;;;;;;;2.47;1.57;;;10.00;99.90;;;;;;5018338;28;20258;-62
2022/02/18 09:33:16;;;;;;;5.10;2.03;;;10.10;99.90;;;;;;5016418;28;20217;-62
2022/02/18 09:35:44;;;;;;;4.23;1.97;;;10.20;99.90;;;;;;5022044;28;20232;-63
2022/02/18 09:38:11;;;;;;;4.30;1.53;;;10.20;99.90;;;;;;5021734;28;20283;-63
2022/02/18 09:40:39;;;;;;;3.27;1.80;;;10.30;99.90;;;;;;5021718;28;20694;-62
2022/02/18 09:43:08;;;;;;;2.90;1.63;;;10.30;99.90;;;;;;5019578;28;20212;-62
2022/02/18 09:45:35;;;;;;;5.20;1.40;;;10.40;99.90;;;;;;5020039;28;20582;-62
2022/02/18 09:48:02;;;;;;;4.77;2.13;;;10.40;99.90;;;;;;5021147;28;20904;-63
2022/02/18 09:50:29;;;;;;;2.60;1.37;;;10.40;99.90;;;;;;5021847;28;20238;-62
2022/02/18 09:53:16;;;;;;;4.93;1.60;;;10.50;99.90;;;;;;5021623;28;20332;-61
2022/02/18 09:55:45;;;;;;;2.83;1.50;;;10.60;99.90;;;;;;5024408;28;20490;-64
2022/02/18 09:58:14;;;;;;;3.27;1.90;;;10.60;99.90;;;;;;5025964;28;20719;-60
2022/02/18 10:00:41;;;;;;;1.90;1.43;;;10.60;99.90;;;;;;5021155;28;20251;-63
2022/02/18 10:03:09;;;;;;;2.33;1.60;;;10.70;99.90;;;;;;5019471;28;20353;-60
2022/02/18 10:05:35;;;;;;;2.37;1.33;;;10.70;99.90;;;;;;5018109;28;20212;-61
2022/02/18 10:08:04;;;;;;;3.90;1.43;;;10.80;99.90;;;;;;5017781;28;20220;-61
2022/02/18 10:10:32;;;;;;;3.60;1.47;;;10.90;99.90;;;;;;5015734;28;20227;-63
2022/02/18 10:12:59;;;;;;;2.53;1.13;;;10.90;99.90;;;;;;5021846;28;20254;-62
2022/02/18 10:15:26;;;;;;;1.30;1.20;;;11.00;99.90;;;;;;5016522;28;20210;-64
2022/02/18 10:18:05;;;;;;;1.83;1.27;;;11.10;99.90;;;;;;5021066;28;20786;-63
2022/02/18 10:20:32;;;;;;;2.33;1.40;;;11.20;99.90;;;;;;5023994;28;20214;-63
2022/02/18 10:23:05;;;;;;;2.50;1.13;;;11.30;99.90;;;;;;5011695;28;20619;-60
2022/02/18 10:25:38;;;;;;;1.90;1.00;;;11.30;99.90;;;;;;5017953;28;20203;-60
2022/02/18 10:28:16;;;;;;;1.63;1.03;;;11.40;99.90;;;;;;5023526;28;20200;-61
2022/02/18 10:30:44;;;;;;;2.13;0.90;;;11.40;99.90;;;;;;5017028;28;20578;-66
2022/02/18 10:33:21;;;;;;;1.20;1.00;;;11.50;99.90;;;;;;5015427;28;20813;-62
2022/02/18 10:35:49;;;;;;;1.37;0.93;;;11.50;99.90;;;;;;5017781;28;20364;-58
2022/02/18 10:38:17;;;;;;;0.90;0.60;;;11.70;99.90;;;;;;5020596;28;20318;-64
2022/02/18 10:40:49;;;;;;;1.03;0.93;;;11.70;99.90;;;;;;5018510;28;20229;-65
2022/02/18 10:43:25;;;;;;;0.97;0.80;;;11.70;99.90;;;;;;5010926;28;20240;-64
2022/02/18 10:46:01;;;;;;;0.60;0.60;;;11.80;99.90;;;;;;5022108;28;20208;-62
2022/02/18 10:48:49;;;;;;;1.23;0.70;;;11.80;99.90;;;;;;5024262;28;20202;-63
2022/02/18 10:51:20;;;;;;;1.33;1.10;;;11.80;99.90;;;;;;5026951;28;20327;-63
2022/02/18 10:53:49;;;;;;;1.33;0.90;;;11.90;99.90;;;;;;5015649;28;20716;-63
2022/02/18 10:56:17;;;;;;;1.80;1.00;;;11.90;99.90;;;;;;5022093;28;20579;-63
2022/02/18 10:58:48;;;;;;;0.80;0.80;;;12.00;99.90;;;;;;5017683;28;20714;-63
2022/02/18 11:01:24;;;;;;;3.70;1.10;;;12.00;99.90;;;;;;5020938;28;20290;-63
2022/02/18 11:04:02;;;;;;;1.00;0.90;;;12.00;99.90;;;;;;5007165;28;20738;-61
2022/02/18 11:06:33;;;;;;;3.50;1.33;;;12.00;99.90;;;;;;5020631;28;20255;-62
2022/02/18 11:09:00;;;;;;;1.83;0.80;;;12.10;99.90;;;;;;5015927;28;20397;-62
2022/02/18 11:11:39;;;;;;;5.00;1.37;;;12.10;99.90;;;;;;5001489;28;20225;-62
2022/02/18 11:14:12;;;;;;;1.17;1.17;;;12.10;99.90;;;;;;4992294;28;20255;-61
2022/02/18 11:16:40;;;;;;;1.03;0.60;;;12.10;99.90;;;;;;4996431;28;20236;-63
2022/02/18 11:19:07;;;;;;;1.27;0.80;;;12.10;99.90;;;;;;5009302;28;20335;-62
2022/02/18 11:21:35;;;;;;;0.97;0.60;;;12.10;99.90;;;;;;5019887;28;20238;-64
2022/02/18 11:24:04;;;;;;;0.73;0.70;;;12.10;99.90;;;;;;5018003;28;20350;-62
2022/02/18 11:26:32;;;;;;;1.80;0.70;;;12.10;99.90;;;;;;5018037;28;20664;-63
2022/02/18 11:29:01;;;;;;;1.50;1.23;;;12.20;99.90;;;;;;5020758;28;20288;-62
2022/02/18 11:31:37;;;;;;;2.07;0.97;;;12.20;99.90;;;;;;5016819;28;20221;-63
2022/02/18 11:34:25;;;;;;;1.07;1.03;;;12.20;99.90;;;;;;5015593;28;20557;-62
2022/02/18 11:37:05;;;;;;;0.57;0.50;;;12.30;99.90;;;;;;5016772;28;20269;-63
2022/02/18 11:39:40;;;;;;;1.30;0.90;;;12.30;99.90;;;;;;5017525;28;20204;-62
2022/02/18 11:42:29;;;;;;;1.47;0.60;;;12.40;99.90;;;;;;5045124;28;20235;-63
2022/02/18 11:44:56;;;;;;;1.00;0.90;;;12.40;99.90;;;;;;5019284;28;20204;-62
2022/02/18 11:47:24;;;;;;;0.97;0.87;;;12.50;99.90;;;;;;5020897;28;20338;-63
2022/02/18 11:49:52;;;;;;;1.97;0.70;;;12.50;99.90;;;;;;5019610;28;20209;-62
2022/02/18 11:52:21;;;;;;;0.97;0.70;;;12.60;99.90;;;;;;5020204;28;20327;-63
2022/02/18 11:54:48;;;;;;;1.27;0.70;;;12.70;99.90;;;;;;5032188;28;20229;-62
2022/02/18 11:57:18;;;;;;;0.50;0.43;;;12.70;99.90;;;;;;5019323;28;20231;-62
2022/02/18 12:00:06;;;;;;;1.90;0.57;;;12.70;99.90;;;;;;5015510;28;20207;-62
2022/02/18 12:02:40;;;;;;;0.73;0.47;;;12.70;99.90;;;;;;5011035;28;20205;-63
2022/02/18 12:05:12;;;;;;;0.73;0.70;;;12.70;99.90;;;;;;5016867;28;20324;-61
2022/02/18 12:07:45;;;;;;;0.83;0.60;;;12.70;99.90;;;;;;5020598;28;20549;-62
2022/02/18 12:10:17;;;;;;;0.80;0.63;;;12.70;99.90;;;;;;5014238;28;20378;-62
2022/02/18 12:12:44;;;;;;;3.07;0.50;;;12.70;99.90;;;;;;5015038;28;20610;-62
2022/02/18 12:15:36;;;;;;;0.87;0.50;;;12.70;99.90;;;;;;5023886;28;20284;-62
2022/02/18 12:18:08;;;;;;;0.70;0.70;;;12.70;99.90;;;;;;5024112;28;20281;-62
2022/02/18 12:20:41;;;;;;;0.63;0.50;;;12.70;99.90;;;;;;5002052;28;21280;-62
2022/02/18 12:23:28;;;;;;;0.67;0.50;;;12.60;99.90;;;;;;5024718;28;20713;-63
2022/02/18 12:26:19;;;;;;;0.60;0.57;;;12.40;99.90;;;;;;5022213;28;20196;-57
2022/02/18 12:28:47;;;;;;;0.53;0.53;;;12.20;99.90;;;;;;5019426;28;20272;-60
2022/02/18 12:31:14;;;;;;;0.60;0.50;;;12.10;99.90;;;;;;5014850;28;20748;-59
2022/02/18 12:33:41;;;;;;;1.47;0.40;;;12.10;99.90;;;;;;5029697;28;20622;-59
2022/02/18 12:36:13;;;;;;;0.50;0.50;;;12.10;99.90;;;;;;5027938;28;20554;-58
2022/02/18 12:38:45;;;;;;;0.60;0.53;;;12.10;99.90;;;;;;5025524;28;20308;-59
2022/02/18 12:41:13;;;;;;;1.03;0.30;;;12.10;99.90;;;;;;5029746;28;20289;-59
2022/02/18 12:43:41;;;;;;;1.60;0.50;;;12.00;99.90;;;;;;5027224;28;20239;-59
2022/02/18 12:46:08;;;;;;;0.83;0.50;;;11.90;99.90;;;;;;5024675;28;20216;-60
2022/02/18 12:48:50;;;;;;;2.50;0.60;;;11.70;99.90;;;;;;5020507;28;20224;-60
2022/02/18 12:51:23;;;;;;;4.57;1.07;;;11.30;99.90;;;;;;5022759;28;21014;-59
2022/02/18 12:53:54;;;;;;;4.33;1.03;;;10.90;99.90;;;;;;5014064;28;20572;-59